createdAt,value
2017-07-18T00:01:35.882Z,68.59
2017-07-18T00:04:04.647Z,68.82
2017-07-18T00:06:32.439Z,69.31
2017-07-18T00:09:00.224Z,69.63
2017-07-18T00:11:27.953Z,69.83
2017-07-18T00:13:55.753Z,69.46
2017-07-18T00:16:23.546Z,69.53
2017-07-18T00:18:51.383Z,69.55
2017-07-18T00:21:19.858Z,70.04
2017-07-18T00:23:47.767Z,70.72
2017-07-18T00:26:15.543Z,70.61
2017-07-18T00:28:43.362Z,70.58
2017-07-18T00:31:11.198Z,70.12
2017-07-18T00:33:39.051Z,70.15
2017-07-18T00:36:06.826Z,70.60
2017-07-18T00:38:34.838Z,70.61
2017-07-18T00:41:02.552Z,70.09
2017-07-18T00:43:30.325Z,69.58
2017-07-18T00:45:58.065Z,68.37
2017-07-18T00:48:25.826Z,68.31
2017-07-18T00:50:53.683Z,69.19
2017-07-18T00:53:21.488Z,70.10
2017-07-18T00:55:49.320Z,69.74
2017-07-18T00:58:17.071Z,70.10
2017-07-18T01:00:44.932Z,70.10
2017-07-18T01:03:12.878Z,69.80
2017-07-18T01:05:40.808Z,70.12
2017-07-18T01:08:08.487Z,71.05
2017-07-18T01:10:36.220Z,71.22
2017-07-18T01:13:03.919Z,71.55
2017-07-18T01:15:31.657Z,71.52
2017-07-18T01:17:59.369Z,71.19
2017-07-18T01:20:27.201Z,71.15
2017-07-18T01:22:55.004Z,71.29
2017-07-18T01:25:22.748Z,71.26
2017-07-18T01:27:50.538Z,71.13
2017-07-18T01:30:18.316Z,71.18
2017-07-18T01:32:46.086Z,71.50
2017-07-18T01:35:13.901Z,71.95
2017-07-18T01:37:41.686Z,72.32
2017-07-18T01:40:09.436Z,72.10
2017-07-18T01:42:37.160Z,72.41
2017-07-18T01:45:04.981Z,72.81
2017-07-18T01:47:32.693Z,73.23
2017-07-18T01:50:00.440Z,72.91
2017-07-18T01:52:28.142Z,72.95
2017-07-18T01:54:55.941Z,72.69
2017-07-18T01:57:23.815Z,72.68
2017-07-18T01:59:51.713Z,72.55
2017-07-18T02:02:19.528Z,72.48
2017-07-18T02:04:47.372Z,72.71
2017-07-18T02:07:15.107Z,72.85
2017-07-18T02:09:42.843Z,73.30
2017-07-18T02:12:10.549Z,73.37
2017-07-18T02:14:38.336Z,72.72
2017-07-18T02:17:06.070Z,72.93
2017-07-18T02:19:34.075Z,72.62
2017-07-18T02:22:01.936Z,72.26
2017-07-18T02:24:29.762Z,73.10
2017-07-18T02:26:57.618Z,72.99
2017-07-18T02:29:25.461Z,72.52
2017-07-18T02:31:53.253Z,72.88
2017-07-18T02:34:21.121Z,72.61
2017-07-18T02:36:48.916Z,72.73
2017-07-18T02:39:16.701Z,72.68
2017-07-18T02:41:44.425Z,73.42
2017-07-18T02:44:12.163Z,74.45
2017-07-18T02:46:40.002Z,74.56
2017-07-18T02:49:07.926Z,74.25
2017-07-18T02:51:35.844Z,74.31
2017-07-18T02:54:03.739Z,74.03
2017-07-18T02:56:31.516Z,74.28
2017-07-18T02:58:59.319Z,74.65
2017-07-18T03:01:27.171Z,75.23
2017-07-18T03:03:54.998Z,75.29
2017-07-18T03:06:22.839Z,74.83
2017-07-18T03:08:50.585Z,73.68
2017-07-18T03:11:18.539Z,73.21
2017-07-18T03:13:46.335Z,72.87
2017-07-18T03:16:14.062Z,73.37
2017-07-18T03:18:41.787Z,72.95
2017-07-18T03:21:09.502Z,73.03
2017-07-18T03:23:37.173Z,73.46
2017-07-18T03:26:04.973Z,73.73
2017-07-18T03:28:32.676Z,74.50
2017-07-18T03:31:00.424Z,74.22
2017-07-18T03:33:28.293Z,75.30
2017-07-18T03:35:56.153Z,75.88
2017-07-18T03:38:24.054Z,76.09
2017-07-18T03:40:51.959Z,76.52
2017-07-18T03:43:19.922Z,76.82
2017-07-18T03:45:47.670Z,76.24
2017-07-18T03:48:15.467Z,75.97
2017-07-18T03:50:43.326Z,76.79
2017-07-18T03:53:11.098Z,76.42
2017-07-18T03:55:38.889Z,76.70
2017-07-18T03:58:06.677Z,76.88
2017-07-18T04:00:34.445Z,77.09
2017-07-18T04:03:02.415Z,77.27
2017-07-18T04:05:30.234Z,77.53
2017-07-18T04:07:58.131Z,77.87
2017-07-18T04:10:25.938Z,77.23
2017-07-18T04:12:53.736Z,77.03
2017-07-18T04:15:21.413Z,77.17
2017-07-18T04:17:49.174Z,77.04
2017-07-18T04:20:16.920Z,76.76
2017-07-18T04:22:44.629Z,75.42
2017-07-18T04:25:12.351Z,75.82
2017-07-18T04:27:40.250Z,75.38
2017-07-18T04:30:08.023Z,75.04
2017-07-18T04:32:35.926Z,76.23
2017-07-18T04:35:03.910Z,76.32
2017-07-18T04:37:31.704Z,76.34
2017-07-18T04:39:59.690Z,76.44
2017-07-18T04:42:27.428Z,76.00
2017-07-18T04:44:55.370Z,75.55
2017-07-18T04:47:23.159Z,74.56
2017-07-18T04:49:51.048Z,74.75
2017-07-18T04:52:18.953Z,75.37
2017-07-18T04:54:46.640Z,75.62
2017-07-18T04:57:14.537Z,75.75
2017-07-18T04:59:42.484Z,76.01
2017-07-18T05:02:10.420Z,76.28
2017-07-18T05:04:38.154Z,76.29
2017-07-18T05:07:05.878Z,76.08
2017-07-18T05:09:33.725Z,75.81
2017-07-18T05:12:01.452Z,75.35
2017-07-18T05:14:29.135Z,74.84
2017-07-18T05:16:56.883Z,74.97
2017-07-18T05:19:24.660Z,74.91
2017-07-18T05:21:52.382Z,74.55
2017-07-18T05:24:20.081Z,74.49
2017-07-18T05:26:47.830Z,74.28
2017-07-18T05:29:15.550Z,74.00
2017-07-18T05:31:43.357Z,74.62
2017-07-18T05:34:11.049Z,74.37
2017-07-18T05:36:38.769Z,73.84
2017-07-18T05:39:06.497Z,72.08
2017-07-18T05:41:34.289Z,72.05
2017-07-18T05:44:02.017Z,71.51
2017-07-18T05:46:29.765Z,71.63
2017-07-18T05:48:57.588Z,70.91
2017-07-18T05:51:25.341Z,68.92
2017-07-18T05:53:53.059Z,68.59
2017-07-18T05:56:20.760Z,67.91
2017-07-18T05:58:48.485Z,67.67
2017-07-18T06:01:16.157Z,67.34
2017-07-18T06:03:43.872Z,66.04
2017-07-18T06:06:11.541Z,65.86
2017-07-18T06:08:39.271Z,66.40
2017-07-18T06:11:06.924Z,66.35
2017-07-18T06:13:34.641Z,66.78
2017-07-18T06:16:02.277Z,67.26
2017-07-18T06:18:30.002Z,66.66
2017-07-18T06:20:57.797Z,66.27
2017-07-18T06:23:25.566Z,66.04
2017-07-18T06:25:53.263Z,65.48
2017-07-18T06:28:20.951Z,65.44
2017-07-18T06:30:48.853Z,65.29
2017-07-18T06:33:16.548Z,65.08
2017-07-18T06:35:44.215Z,65.62
2017-07-18T06:38:11.963Z,65.69
2017-07-18T06:40:39.708Z,64.99
2017-07-18T06:43:07.510Z,64.50
2017-07-18T06:45:35.333Z,65.21
2017-07-18T06:48:03.095Z,65.35
2017-07-18T06:50:30.834Z,65.26
2017-07-18T06:52:58.682Z,65.08
2017-07-18T06:55:26.479Z,65.04
2017-07-18T06:57:54.236Z,64.82
2017-07-18T07:00:22.323Z,64.49
2017-07-18T07:02:49.974Z,64.26
2017-07-18T07:05:17.736Z,64.29
2017-07-18T07:07:45.367Z,64.16
2017-07-18T07:10:13.070Z,64.34
2017-07-18T07:12:40.705Z,63.88
2017-07-18T07:15:08.393Z,64.03
2017-07-18T07:17:36.068Z,64.69
2017-07-18T07:20:03.776Z,64.46
2017-07-18T07:22:32.093Z,63.44
2017-07-18T07:24:59.761Z,63.43
2017-07-18T07:27:27.411Z,63.70
2017-07-18T07:29:55.761Z,63.95
2017-07-18T07:32:23.428Z,63.97
2017-07-18T07:34:51.535Z,64.29
2017-07-18T07:37:19.287Z,64.01
2017-07-18T07:39:46.909Z,64.13
2017-07-18T07:42:14.566Z,64.51
2017-07-18T07:44:42.340Z,63.08
2017-07-18T07:47:09.982Z,63.29
2017-07-18T07:49:37.624Z,63.00
2017-07-18T07:52:05.525Z,63.18
2017-07-18T07:54:33.790Z,63.14
2017-07-18T07:57:01.845Z,63.00
2017-07-18T07:59:29.573Z,62.93
2017-07-18T08:01:57.344Z,61.97
2017-07-18T08:04:25.173Z,61.46
2017-07-18T08:06:52.836Z,61.90
2017-07-18T08:09:20.488Z,61.62
2017-07-18T08:11:48.180Z,61.96
2017-07-18T08:14:15.909Z,61.35
2017-07-18T08:16:43.753Z,61.00
2017-07-18T08:19:11.457Z,60.95
2017-07-18T08:21:39.442Z,60.94
2017-07-18T08:24:07.235Z,60.79
2017-07-18T08:26:35.017Z,60.80
2017-07-18T08:29:02.647Z,60.48
2017-07-18T08:31:30.292Z,58.53
2017-07-18T08:33:57.943Z,59.45
2017-07-18T08:36:25.594Z,58.26
2017-07-18T08:38:53.192Z,57.01
2017-07-18T08:41:20.881Z,56.28
2017-07-18T08:43:48.500Z,55.96
2017-07-18T08:46:16.339Z,55.69
2017-07-18T08:48:44.018Z,55.01
2017-07-18T08:51:11.672Z,54.70
2017-07-18T08:53:39.308Z,55.42
2017-07-18T08:56:07.034Z,55.86
2017-07-18T08:58:34.656Z,56.12
2017-07-18T09:01:02.302Z,54.54
2017-07-18T09:03:29.922Z,54.93
2017-07-18T09:05:57.699Z,55.63
2017-07-18T09:08:25.330Z,54.64
2017-07-18T09:10:53.012Z,55.13
2017-07-18T09:13:20.631Z,54.92
2017-07-18T09:15:48.287Z,54.40
2017-07-18T09:18:15.953Z,54.82
2017-07-18T09:20:43.714Z,54.84
2017-07-18T09:23:12.473Z,54.36
2017-07-18T09:25:40.119Z,55.23
2017-07-18T09:28:07.735Z,55.26
2017-07-18T09:30:35.441Z,55.96
2017-07-18T09:33:03.390Z,54.54
2017-07-18T09:35:31.021Z,53.88
2017-07-18T09:37:58.695Z,53.50
2017-07-18T09:40:26.371Z,53.31
2017-07-18T09:42:54.370Z,53.63
2017-07-18T09:45:22.035Z,54.64
2017-07-18T09:47:49.948Z,53.77
2017-07-18T09:50:17.772Z,52.95
2017-07-18T09:52:45.687Z,53.98
2017-07-18T09:55:13.500Z,53.56
2017-07-18T09:57:41.181Z,53.96
2017-07-18T10:00:08.921Z,54.05
2017-07-18T10:02:36.677Z,53.70
2017-07-18T10:05:04.420Z,52.39
2017-07-18T10:07:32.188Z,51.95
2017-07-18T10:09:59.863Z,51.52
2017-07-18T10:12:27.667Z,51.92
2017-07-18T10:14:55.298Z,51.92
2017-07-18T10:17:23.126Z,52.09
2017-07-18T10:19:50.909Z,51.20
2017-07-18T10:22:18.687Z,51.14
2017-07-18T10:24:46.343Z,51.80
2017-07-18T10:27:13.982Z,49.60
2017-07-18T10:29:41.733Z,49.27
2017-07-18T10:32:09.432Z,47.95
2017-07-18T10:34:37.135Z,49.36
2017-07-18T10:37:04.797Z,49.49
2017-07-18T10:39:32.602Z,48.71
2017-07-18T10:42:00.420Z,49.73
2017-07-18T10:44:28.119Z,47.23
2017-07-18T10:46:55.729Z,47.40
2017-07-18T10:49:23.386Z,46.03
2017-07-18T10:51:51.093Z,44.57
2017-07-18T10:54:18.734Z,44.37
2017-07-18T10:56:46.340Z,42.22
2017-07-18T10:59:14.066Z,44.16
2017-07-18T11:01:41.688Z,42.75
2017-07-18T11:04:09.340Z,43.20
2017-07-18T11:06:36.964Z,42.15
2017-07-18T11:09:04.711Z,41.79
2017-07-18T11:11:32.333Z,40.45
2017-07-18T11:13:59.981Z,40.90
2017-07-18T11:16:27.595Z,40.80
2017-07-18T11:18:55.320Z,41.86
2017-07-18T11:21:22.936Z,42.60
2017-07-18T11:23:50.577Z,41.48
2017-07-18T11:26:18.238Z,37.92
2017-07-18T11:28:45.865Z,40.18
2017-07-18T11:31:13.556Z,37.48
2017-07-18T11:33:41.382Z,37.09
2017-07-18T11:36:09.067Z,38.56
2017-07-18T11:38:36.834Z,37.14
2017-07-18T11:41:04.959Z,37.53
2017-07-18T11:43:32.838Z,37.24
2017-07-18T11:46:00.874Z,38.88
2017-07-18T11:48:29.064Z,38.93
2017-07-18T11:50:56.961Z,38.60
2017-07-18T11:53:24.808Z,37.84
2017-07-18T11:55:52.830Z,38.09
2017-07-18T11:58:21.105Z,37.63
2017-07-18T12:00:48.959Z,36.50
2017-07-18T12:03:17.229Z,36.01
2017-07-18T12:05:45.037Z,35.85
2017-07-18T12:08:13.170Z,35.83
2017-07-18T12:10:41.090Z,35.68
2017-07-18T12:13:09.247Z,35.97
2017-07-18T12:15:37.306Z,36.48
2017-07-18T12:18:05.243Z,35.03
2017-07-18T12:20:33.306Z,36.48
2017-07-18T12:23:01.146Z,40.03
2017-07-18T12:25:28.808Z,38.86
2017-07-18T12:27:56.904Z,38.80
2017-07-18T12:30:24.741Z,38.66
2017-07-18T12:32:53.387Z,39.50
2017-07-18T12:35:21.475Z,39.74
2017-07-18T12:37:49.302Z,38.88
2017-07-18T12:40:17.145Z,38.60
2017-07-18T12:42:44.899Z,39.66
2017-07-18T12:45:14.131Z,38.03
2017-07-18T12:47:42.292Z,39.27
2017-07-18T12:50:10.138Z,38.46
2017-07-18T12:52:37.875Z,38.19
2017-07-18T12:55:05.697Z,37.30
2017-07-18T12:57:33.563Z,38.39
2017-07-18T13:00:01.413Z,37.22
2017-07-18T13:02:29.146Z,36.46
2017-07-18T13:04:56.794Z,36.74
2017-07-18T13:07:24.473Z,37.75
2017-07-18T13:09:52.124Z,37.18
2017-07-18T13:12:19.820Z,38.26
2017-07-18T13:14:47.483Z,37.16
2017-07-18T13:17:15.187Z,37.63
2017-07-18T13:19:42.849Z,36.91
2017-07-18T13:22:10.546Z,35.70
2017-07-18T13:24:38.219Z,36.45
2017-07-18T13:27:05.925Z,36.25
2017-07-18T13:29:33.693Z,37.18
2017-07-18T13:32:01.738Z,35.72
2017-07-18T13:34:29.774Z,36.63
2017-07-18T13:36:58.039Z,35.56
2017-07-18T13:39:26.083Z,36.50
2017-07-18T13:41:54.345Z,36.61
2017-07-18T13:44:22.179Z,35.68
2017-07-18T13:46:50.661Z,34.59
2017-07-18T13:49:19.329Z,34.85
2017-07-18T13:51:49.801Z,34.04
2017-07-18T13:54:18.275Z,35.26
2017-07-18T13:56:46.730Z,34.64
2017-07-18T13:59:15.520Z,35.37
2017-07-18T14:01:53.914Z,34.51
2017-07-18T14:04:22.299Z,34.00
2017-07-18T14:06:51.043Z,33.98
2017-07-18T14:09:19.479Z,33.39
2017-07-18T14:11:48.789Z,33.70
2017-07-18T14:14:17.293Z,33.47
2017-07-18T14:16:45.920Z,33.46
2017-07-18T14:19:16.874Z,34.20
2017-07-18T14:21:47.104Z,34.08
2017-07-18T14:24:16.288Z,33.47
2017-07-18T14:26:44.292Z,33.17
2017-07-18T14:32:01.786Z,31.51
2017-07-18T14:57:26.743Z,30.03
2017-07-18T15:00:02.440Z,30.74
2017-07-18T15:08:31.235Z,31.29
2017-07-18T15:31:08.140Z,30.20
2017-07-18T15:42:11.991Z,30.98
2017-07-18T16:36:29.190Z,32.13
2017-07-18T16:39:15.816Z,33.88
2017-07-18T16:58:16.089Z,35.06
2017-07-18T17:00:50.531Z,34.92
2017-07-18T17:03:19.495Z,35.50
2017-07-18T17:05:48.860Z,34.88
2017-07-18T17:08:16.864Z,35.47
2017-07-18T17:10:44.947Z,34.58
2017-07-18T17:13:13.136Z,35.19
2017-07-18T17:15:42.693Z,34.98
2017-07-18T17:18:10.894Z,35.28
2017-07-18T17:20:39.162Z,34.75
2017-07-18T17:23:07.332Z,34.54
2017-07-18T20:07:17.991Z,44.66
2017-07-18T20:09:45.608Z,44.30
2017-07-18T20:12:13.255Z,44.91
2017-07-18T20:14:40.872Z,45.03
2017-07-18T20:17:08.552Z,45.29
2017-07-18T20:19:36.178Z,45.43
2017-07-18T20:22:03.854Z,45.20
2017-07-18T20:24:31.451Z,45.35
2017-07-18T20:26:59.075Z,44.85
2017-07-18T20:29:26.674Z,44.75
2017-07-18T20:31:54.310Z,45.33
2017-07-18T20:34:21.957Z,45.71
2017-07-18T20:36:49.554Z,46.02
2017-07-18T20:39:17.222Z,45.67
2017-07-18T20:41:44.940Z,45.70
2017-07-18T20:44:12.558Z,45.90
2017-07-18T20:46:40.202Z,45.69
2017-07-18T20:49:47.142Z,45.45
2017-07-18T20:52:14.803Z,46.34
2017-07-18T20:54:42.398Z,45.81
2017-07-18T20:57:10.036Z,46.35
2017-07-18T20:59:37.703Z,46.84
2017-07-18T21:02:05.362Z,47.09
2017-07-18T21:04:33.002Z,46.75
2017-07-18T21:07:00.815Z,47.06
2017-07-18T21:09:28.643Z,46.90
2017-07-18T21:11:56.246Z,47.89
2017-07-18T21:14:24.049Z,48.11
2017-07-18T21:16:51.691Z,48.34
2017-07-18T21:19:19.400Z,49.03
2017-07-18T21:21:47.022Z,48.50
2017-07-18T21:24:14.651Z,48.72
2017-07-18T21:26:42.243Z,48.72
2017-07-18T21:29:09.881Z,48.85
2017-07-18T21:31:37.496Z,49.22
2017-07-18T21:34:05.074Z,49.18
2017-07-18T21:36:32.706Z,49.99
2017-07-18T21:39:00.435Z,50.15
2017-07-18T21:41:28.276Z,50.32
2017-07-18T21:43:55.884Z,50.64
2017-07-18T21:46:23.519Z,50.94
2017-07-18T21:48:51.123Z,51.06
2017-07-18T21:51:18.778Z,51.26
2017-07-18T21:53:46.380Z,51.10
2017-07-18T21:56:13.989Z,51.46
2017-07-18T21:58:41.634Z,51.76
2017-07-18T22:01:09.223Z,51.88
2017-07-18T22:03:36.839Z,52.59
2017-07-18T22:06:04.440Z,52.49
2017-07-18T22:08:32.094Z,52.74
2017-07-18T22:10:59.744Z,53.13
2017-07-18T22:13:27.331Z,53.25
2017-07-18T22:15:54.981Z,53.68
2017-07-18T22:18:22.571Z,53.71
2017-07-18T22:20:50.185Z,54.05
2017-07-18T22:23:17.786Z,53.99
2017-07-18T22:25:45.422Z,54.22
2017-07-18T22:28:13.026Z,54.53
2017-07-18T22:30:40.750Z,54.00
2017-07-18T22:33:08.350Z,54.16
2017-07-18T22:35:36.026Z,53.86
2017-07-18T22:38:03.631Z,53.82
2017-07-18T22:40:31.285Z,54.07
2017-07-18T22:42:58.882Z,54.59
2017-07-18T22:45:26.481Z,54.84
2017-07-18T22:47:54.106Z,54.65
2017-07-18T22:50:21.701Z,54.42
2017-07-18T22:52:49.334Z,54.43
2017-07-18T22:55:16.933Z,54.43
2017-07-18T22:57:44.578Z,54.68
2017-07-18T23:00:12.211Z,54.72
2017-07-18T23:02:39.829Z,54.81
2017-07-18T23:05:07.416Z,54.67
2017-07-18T23:07:35.068Z,54.79
2017-07-18T23:10:02.670Z,55.08
2017-07-18T23:12:30.342Z,55.12
2017-07-18T23:14:57.937Z,54.98
2017-07-18T23:17:25.590Z,55.10
2017-07-18T23:19:53.198Z,55.11
2017-07-18T23:22:20.790Z,55.37
2017-07-18T23:24:48.414Z,55.42
2017-07-18T23:27:16.010Z,55.28
2017-07-18T23:29:43.634Z,55.37
2017-07-18T23:32:11.226Z,55.60
2017-07-18T23:34:38.858Z,55.77
2017-07-18T23:37:06.443Z,55.67
2017-07-18T23:39:34.084Z,55.75
2017-07-18T23:42:01.718Z,55.66
2017-07-18T23:44:29.377Z,55.79
2017-07-18T23:46:56.973Z,55.87
2017-07-18T23:49:24.590Z,56.18
2017-07-18T23:51:52.220Z,56.21
2017-07-18T23:54:19.843Z,56.24
2017-07-18T23:56:47.498Z,56.51
2017-07-18T23:59:15.159Z,57.21
